Time;durP1;ratioP1;P1;durP2;ratioP2;P2;SDS_P1;SDS_P2;PMS_P1;PMS_P2;Temp;Humidity;BMP_temperature;BMP_pressure;BME280_temperature;BME280_humidity;BME280_pressure;Samples;Min_cycle;Max_cycle;Signal;HPM_P1;HPM_P2
2021/07/18 00:00:21;;;;;;;18.45;5.32;;;;;;;20.48;73.71;101831.72;5035392;28;20052;-65
2021/07/18 00:02:49;;;;;;;14.65;5.45;;;;;;;20.45;73.76;101818.44;5053021;28;20072;-64
2021/07/18 00:05:16;;;;;;;14.93;6.15;;;;;;;20.40;73.98;101815.88;5035307;28;20053;-64
2021/07/18 00:07:43;;;;;;;14.88;5.78;;;;;;;20.41;73.83;101812.72;5053772;28;20049;-64
2021/07/18 00:10:11;;;;;;;12.52;6.00;;;;;;;20.47;73.65;101821.69;5057040;28;20057;-64
2021/07/18 00:12:39;;;;;;;19.38;7.00;;;;;;;20.07;75.82;101819.63;5057112;28;20056;-64
2021/07/18 00:15:08;;;;;;;18.05;6.80;;;;;;;20.00;75.76;101822.19;5056873;28;20487;-64
2021/07/18 00:17:39;;;;;;;14.70;6.60;;;;;;;20.02;75.85;101814.25;5056385;28;20052;-64
2021/07/18 00:20:10;;;;;;;14.32;6.20;;;;;;;20.02;76.22;101824.63;5056742;28;20049;-65
2021/07/18 00:22:37;;;;;;;13.05;6.25;;;;;;;20.12;75.79;101829.75;5056868;28;20053;-63
2021/07/18 00:25:06;;;;;;;12.68;5.90;;;;;;;20.31;75.07;101827.19;5056595;28;20055;-64
2021/07/18 00:27:33;;;;;;;15.50;6.30;;;;;;;20.25;74.98;101825.81;5056742;28;20057;-64
2021/07/18 00:30:01;;;;;;;12.00;5.90;;;;;;;20.48;74.03;101818.53;5056639;28;20443;-64
2021/07/18 00:32:28;;;;;;;12.30;5.70;;;;;;;20.39;73.86;101825.44;5056367;28;20053;-65
2021/07/18 00:34:55;;;;;;;11.30;5.55;;;;;;;20.40;73.64;101818.69;5038843;28;20048;-65
2021/07/18 00:37:23;;;;;;;17.95;6.05;;;;;;;20.33;74.18;101822.06;5056622;28;20049;-65
2021/07/18 00:39:50;;;;;;;13.15;6.18;;;;;;;20.31;74.58;101821.59;5056487;28;20048;-64
2021/07/18 00:42:18;;;;;;;15.07;6.70;;;;;;;20.22;74.23;101826.53;5056439;28;20067;-65
2021/07/18 00:44:46;;;;;;;12.77;6.07;;;;;;;20.24;74.55;101823.38;5056796;28;20068;-65
2021/07/18 00:47:14;;;;;;;15.23;5.80;;;;;;;20.24;74.76;101823.38;5055801;28;20049;-65
2021/07/18 00:49:41;;;;;;;12.55;6.10;;;;;;;20.45;73.96;101813.63;5038777;28;20052;-65
2021/07/18 00:52:08;;;;;;;16.20;5.80;;;;;;;20.48;73.56;101814.91;5038288;28;20072;-65
2021/07/18 00:54:36;;;;;;;14.95;6.10;;;;;;;20.31;74.03;101818.78;5056379;28;20053;-65
2021/07/18 00:57:05;;;;;;;16.30;5.85;;;;;;;20.47;74.19;101821.69;5047677;28;20052;-65
2021/07/18 00:59:34;;;;;;;14.60;6.68;;;;;;;19.82;76.23;101817.97;5078326;28;20059;-65
2021/07/18 01:02:01;;;;;;;14.25;5.55;;;;;;;19.84;76.73;101820.44;5078165;28;20391;-65
2021/07/18 01:04:29;;;;;;;13.82;5.97;;;;;;;19.61;77.72;101822.06;5095836;28;20051;-63
2021/07/18 01:06:57;;;;;;;18.15;6.82;;;;;;;19.66;77.67;101817.06;5096005;28;20055;-64
2021/07/18 01:09:24;;;;;;;18.95;6.45;;;;;;;19.81;77.14;101818.31;5096185;28;20052;-63
2021/07/18 01:11:52;;;;;;;17.08;6.68;;;;;;;19.64;77.46;101821.34;5096129;28;20048;-65
2021/07/18 01:14:19;;;;;;;15.85;6.25;;;;;;;19.71;77.45;101816.81;5095800;28;20047;-63
2021/07/18 01:16:46;;;;;;;13.13;6.05;;;;;;;19.73;77.49;101816.47;5095436;28;20069;-64
2021/07/18 01:19:18;;;;;;;18.70;6.25;;;;;;;19.81;76.94;101827.53;5077297;28;20059;-65
2021/07/18 01:21:52;;;;;;;13.15;6.20;;;;;;;19.67;77.48;101829.03;5095590;28;20048;-64
2021/07/18 01:24:19;;;;;;;13.75;5.80;;;;;;;19.57;78.20;101821.09;5095688;28;20055;-64
2021/07/18 01:26:46;;;;;;;12.23;6.32;;;;;;;19.53;77.94;101825.75;5094842;28;20059;-64
2021/07/18 01:29:14;;;;;;;12.27;6.60;;;;;;;19.39;78.45;101823.28;5078069;28;20047;-64
2021/07/18 01:31:41;;;;;;;15.45;6.18;;;;;;;19.46;78.86;101822.72;5095952;28;20044;-64
2021/07/18 01:34:09;;;;;;;13.57;6.03;;;;;;;19.48;78.27;101825.97;5077491;28;20491;-64
2021/07/18 01:36:36;;;;;;;13.35;6.05;;;;;;;19.44;78.66;101813.88;5095460;28;20067;-64
2021/07/18 01:39:10;;;;;;;14.50;6.72;;;;;;;19.44;78.12;101820.25;5095600;28;20055;-64
2021/07/18 01:41:38;;;;;;;16.08;7.00;;;;;;;19.24;79.20;101818.34;5095551;28;20051;-67
2021/07/18 01:44:06;;;;;;;13.77;6.57;;;;;;;19.09;80.44;101824.56;5077380;28;20048;-63
2021/07/18 01:46:35;;;;;;;13.25;6.07;;;;;;;19.13;79.74;101811.53;5095024;28;20048;-64
2021/07/18 01:49:06;;;;;;;14.80;6.72;;;;;;;19.06;80.48;101823.28;5095090;28;20059;-64
2021/07/18 01:51:37;;;;;;;12.60;6.25;;;;;;;19.25;79.84;101813.56;5076888;28;20063;-64
2021/07/18 01:54:06;;;;;;;12.55;6.30;;;;;;;19.02;80.49;101813.16;5077227;28;20048;-64
2021/07/18 01:56:34;;;;;;;13.05;6.35;;;;;;;19.09;80.33;101803.03;5085801;28;20052;-64
2021/07/18 01:59:01;;;;;;;11.95;5.70;;;;;;;19.23;79.67;101799.94;5056974;28;20056;-65
2021/07/18 02:01:30;;;;;;;13.90;6.28;;;;;;;19.28;79.44;101805.31;5075148;28;20041;-64
2021/07/18 02:03:59;;;;;;;18.40;6.53;;;;;;;19.35;79.00;101804.78;5075102;28;20056;-64
2021/07/18 02:06:26;;;;;;;14.00;6.28;;;;;;;19.55;77.75;101801.91;5074623;28;20044;-65
2021/07/18 02:08:56;;;;;;;16.80;5.85;;;;;;;19.54;77.67;101805.88;5055851;28;20139;-65
2021/07/18 02:11:24;;;;;;;13.02;5.90;;;;;;;19.33;78.50;101805.13;5057040;28;20044;-65
2021/07/18 02:13:53;;;;;;;14.93;5.82;;;;;;;19.21;79.25;101809.84;5074871;28;20040;-65
2021/07/18 02:16:21;;;;;;;16.08;6.40;;;;;;;19.08;79.92;101807.00;5074341;28;20759;-64
2021/07/18 02:18:49;;;;;;;11.60;6.63;;;;;;;18.85;81.35;101808.53;5074729;28;20071;-65
2021/07/18 02:21:19;;;;;;;17.60;6.53;;;;;;;18.90;81.40;101801.91;5074798;28;20055;-65
2021/07/18 02:23:47;;;;;;;15.38;7.00;;;;;;;18.87;81.09;101808.19;5056804;28;20056;-64
2021/07/18 02:26:18;;;;;;;15.35;6.47;;;;;;;18.78;81.40;101810.25;5074236;28;20044;-64
2021/07/18 02:28:45;;;;;;;16.38;6.60;;;;;;;18.84;81.30;101797.72;5074283;28;20048;-65
2021/07/18 02:31:13;;;;;;;17.15;6.45;;;;;;;18.95;80.83;101804.53;5055168;28;20045;-65
2021/07/18 02:33:40;;;;;;;16.48;6.32;;;;;;;18.93;80.70;101804.03;5074114;28;20071;-63
2021/07/18 02:36:07;;;;;;;15.40;6.10;;;;;;;18.99;80.22;101808.22;5073975;28;20064;-65
2021/07/18 02:38:34;;;;;;;13.23;7.28;;;;;;;18.86;80.89;101798.19;5074284;28;20048;-64
2021/07/18 02:41:02;;;;;;;13.68;6.57;;;;;;;18.96;80.73;101808.94;5074212;28;20051;-64
2021/07/18 02:43:29;;;;;;;15.98;6.68;;;;;;;18.82;81.13;101805.63;5074218;28;20600;-64
2021/07/18 02:45:57;;;;;;;12.90;6.45;;;;;;;18.80;81.01;101814.34;5073970;28;20052;-64
2021/07/18 02:48:24;;;;;;;15.07;6.43;;;;;;;18.83;81.22;101801.66;5073827;28;20057;-64
2021/07/18 02:50:52;;;;;;;15.90;6.30;;;;;;;18.76;81.43;101791.03;5074030;28;20507;-63
2021/07/18 02:53:19;;;;;;;15.95;6.63;;;;;;;18.80;81.41;101802.34;5073923;28;20167;-65
2021/07/18 02:55:46;;;;;;;14.02;5.93;;;;;;;18.88;81.00;101795.88;5076420;28;20071;-64
2021/07/18 02:58:13;;;;;;;12.95;5.80;;;;;;;18.89;80.37;101791.91;5094009;28;20065;-64
2021/07/18 03:00:40;;;;;;;15.13;6.95;;;;;;;18.83;81.24;101787.69;5093459;28;20059;-63
2021/07/18 03:03:08;;;;;;;20.65;6.40;;;;;;;18.95;80.57;101791.34;5075354;28;20064;-65
2021/07/18 03:05:35;;;;;;;12.73;6.20;;;;;;;18.66;81.82;101790.66;5075740;28;20056;-63
2021/07/18 03:08:02;;;;;;;12.05;6.00;;;;;;;18.87;81.47;101791.44;5093478;28;20063;-65
2021/07/18 03:10:29;;;;;;;14.00;6.22;;;;;;;18.89;80.62;101789.94;5075806;28;20510;-65
2021/07/18 03:12:57;;;;;;;13.45;6.03;;;;;;;18.76;81.26;101790.22;5093955;28;20048;-65
2021/07/18 03:15:24;;;;;;;20.30;6.57;;;;;;;18.78;81.00;101785.13;5093975;28;20051;-64
2021/07/18 03:17:51;;;;;;;18.48;7.03;;;;;;;18.76;81.20;101784.63;5093472;28;20055;-64
2021/07/18 03:20:19;;;;;;;12.65;6.18;;;;;;;18.76;81.06;101796.63;5093923;28;20051;-64
2021/07/18 03:22:47;;;;;;;17.05;6.53;;;;;;;18.65;82.03;101786.22;5093201;28;20044;-64
2021/07/18 03:25:15;;;;;;;17.83;6.93;;;;;;;18.48;82.69;101789.19;5093618;28;20059;-64
2021/07/18 03:27:43;;;;;;;12.25;6.15;;;;;;;18.28;83.83;101795.53;5094235;28;20059;-64
2021/07/18 03:30:13;;;;;;;15.60;6.75;;;;;;;18.52;83.15;101793.72;5094445;28;20040;-64
2021/07/18 03:32:40;;;;;;;13.93;6.57;;;;;;;18.35;83.30;101790.22;5093389;28;20055;-63
2021/07/18 03:35:09;;;;;;;11.55;7.25;;;;;;;18.23;84.76;101790.97;5094147;28;20055;-62
2021/07/18 03:37:36;;;;;;;16.25;6.80;;;;;;;18.30;84.13;101784.84;5093762;28;20048;-63
2021/07/18 03:40:08;;;;;;;14.38;6.47;;;;;;;18.39;83.62;101788.38;5093771;28;20052;-64
2021/07/18 03:42:36;;;;;;;13.30;6.35;;;;;;;18.35;84.00;101793.00;5094092;28;20397;-64
2021/07/18 03:45:05;;;;;;;14.30;6.68;;;;;;;18.43;83.10;101797.75;5097829;28;20047;-63
2021/07/18 03:47:33;;;;;;;15.23;6.28;;;;;;;18.47;82.84;101791.13;5097105;28;20059;-64
2021/07/18 03:50:02;;;;;;;17.65;7.40;;;;;;;18.48;82.51;101795.56;5097676;28;20402;-64
2021/07/18 03:52:30;;;;;;;17.50;6.95;;;;;;;18.72;82.29;101789.28;5097399;28;20052;-64
2021/07/18 03:54:57;;;;;;;11.43;5.97;;;;;;;18.64;82.39;101796.56;5097571;28;20059;-64
2021/07/18 03:57:24;;;;;;;16.30;6.43;;;;;;;18.67;81.47;101795.88;5080780;28;20051;-64
2021/07/18 03:59:52;;;;;;;14.30;7.00;;;;;;;18.68;81.36;101791.94;5077202;28;20718;-63
2021/07/18 04:02:19;;;;;;;14.38;7.20;;;;;;;18.84;81.14;101789.34;5076763;28;20057;-63
2021/07/18 04:04:46;;;;;;;16.00;6.53;;;;;;;18.87;80.04;101789.47;5077048;28;20068;-63
2021/07/18 04:07:13;;;;;;;13.68;7.10;;;;;;;18.58;81.67;101789.59;5076835;28;20053;-64
2021/07/18 04:09:41;;;;;;;14.98;6.35;;;;;;;18.56;81.85;101783.53;5076981;28;20060;-63
2021/07/18 04:12:08;;;;;;;13.00;6.35;;;;;;;18.67;81.72;101786.72;5076874;28;20045;-64
2021/07/18 04:14:35;;;;;;;11.77;6.47;;;;;;;18.71;81.13;101784.84;5076870;28;20067;-64
2021/07/18 04:17:03;;;;;;;15.93;6.82;;;;;;;18.57;81.62;101787.94;5076454;28;20048;-64
2021/07/18 04:19:30;;;;;;;16.08;7.72;;;;;;;18.56;81.73;101793.84;5076727;28;20583;-65
2021/07/18 04:21:57;;;;;;;15.75;6.65;;;;;;;18.56;82.00;101799.44;5076593;28;20049;-64
2021/07/18 04:24:26;;;;;;;13.85;7.70;;;;;;;18.66;81.53;101797.06;5058060;28;20064;-64
2021/07/18 04:26:53;;;;;;;15.13;7.78;;;;;;;18.69;81.26;101809.53;5076408;28;20055;-64
2021/07/18 04:29:20;;;;;;;16.20;7.60;;;;;;;18.66;81.33;101801.81;5076728;28;20047;-64
2021/07/18 04:31:48;;;;;;;15.32;8.20;;;;;;;18.58;81.38;101803.53;5076544;28;20642;-64
2021/07/18 04:34:16;;;;;;;20.00;8.63;;;;;;;18.52;81.46;101801.28;5076503;28;20057;-64
2021/07/18 04:36:43;;;;;;;13.45;7.75;;;;;;;18.67;81.23;101806.25;5076440;28;20052;-64
2021/07/18 04:39:10;;;;;;;14.73;8.07;;;;;;;18.66;81.11;101810.19;5076246;28;20045;-64
2021/07/18 04:41:37;;;;;;;16.23;8.13;;;;;;;18.71;80.52;101812.75;5076367;28;20506;-62
2021/07/18 04:44:05;;;;;;;17.67;7.68;;;;;;;18.83;79.84;101813.63;5076380;28;20118;-63
2021/07/18 04:46:32;;;;;;;12.75;6.93;;;;;;;18.68;79.97;101813.47;5058120;28;20052;-64
2021/07/18 04:49:00;;;;;;;13.45;7.03;;;;;;;18.51;81.67;101808.84;5058296;28;20052;-63
2021/07/18 04:51:27;;;;;;;13.50;6.90;;;;;;;18.62;81.18;101815.63;5076307;28;20067;-64
2021/07/18 04:53:54;;;;;;;16.52;7.22;;;;;;;18.39;81.18;101805.13;5075567;28;20060;-64
2021/07/18 04:56:22;;;;;;;13.68;6.78;;;;;;;18.39;81.94;101816.28;5064369;28;20063;-62
2021/07/18 04:58:49;;;;;;;11.20;6.40;;;;;;;18.43;81.17;101815.28;5061503;28;20051;-64
2021/07/18 05:01:16;;;;;;;13.27;6.68;;;;;;;18.53;80.77;101828.81;5096012;28;20048;-64
2021/07/18 05:03:43;;;;;;;16.52;6.35;;;;;;;18.55;81.23;101820.94;5078048;28;20063;-65
2021/07/18 05:06:11;;;;;;;14.75;6.25;;;;;;;18.46;81.45;101828.56;5096256;28;20083;-64
2021/07/18 05:08:38;;;;;;;13.82;6.00;;;;;;;18.84;79.67;101832.03;5096009;28;20044;-64
2021/07/18 05:11:05;;;;;;;13.60;6.90;;;;;;;18.43;81.17;101836.81;5096357;28;20046;-64
2021/07/18 05:13:33;;;;;;;13.38;6.13;;;;;;;18.57;81.00;101828.97;5095955;28;20048;-64
2021/07/18 05:16:00;;;;;;;15.32;6.13;;;;;;;18.43;81.34;101826.44;5095207;28;20056;-64
2021/07/18 05:18:27;;;;;;;15.68;6.40;;;;;;;18.73;80.11;101841.16;5095999;28;20056;-64
2021/07/18 05:20:54;;;;;;;12.60;6.40;;;;;;;18.60;80.44;101831.91;5096028;28;20529;-65
2021/07/18 05:23:22;;;;;;;12.10;5.72;;;;;;;18.48;80.80;101829.03;5096153;28;20055;-65
2021/07/18 05:25:49;;;;;;;12.40;5.80;;;;;;;18.74;79.81;101837.22;5095545;28;20052;-65
2021/07/18 05:28:17;;;;;;;11.25;5.80;;;;;;;18.46;80.69;101830.56;5077271;28;20060;-64
2021/07/18 05:30:44;;;;;;;14.18;6.20;;;;;;;18.38;80.85;101837.78;5095925;28;20043;-64
2021/07/18 05:33:11;;;;;;;12.10;6.40;;;;;;;18.50;80.34;101828.69;5095678;28;20052;-64
2021/07/18 05:35:39;;;;;;;13.07;5.78;;;;;;;18.56;80.72;101828.16;5077188;28;20040;-63
2021/07/18 05:38:06;;;;;;;11.18;5.78;;;;;;;18.56;80.23;101830.13;5077437;28;20173;-65
2021/07/18 05:40:33;;;;;;;11.40;6.00;;;;;;;18.48;80.76;101829.03;5095658;28;20044;-64
2021/07/18 05:43:01;;;;;;;15.60;5.95;;;;;;;18.68;79.67;101830.19;5095728;28;20055;-64
2021/07/18 05:45:28;;;;;;;12.82;5.97;;;;;;;18.29;80.59;101827.84;5077153;28;20044;-64
2021/07/18 05:47:55;;;;;;;12.95;5.60;;;;;;;18.42;80.86;101826.78;5095373;28;20048;-64
2021/07/18 05:50:23;;;;;;;11.07;5.50;;;;;;;18.34;80.94;101830.44;5095526;28;20048;-64
2021/07/18 05:52:50;;;;;;;11.23;6.57;;;;;;;18.06;81.72;101835.72;5095264;28;20040;-64
2021/07/18 05:55:17;;;;;;;13.30;5.63;;;;;;;18.22;82.66;101827.56;5095174;28;20048;-64
2021/07/18 05:57:44;;;;;;;14.10;6.03;;;;;;;18.39;81.34;101833.03;5075879;28;20064;-64
2021/07/18 06:00:13;;;;;;;12.57;5.65;;;;;;;18.50;80.51;101826.72;5074985;28;20052;-65
2021/07/18 06:02:41;;;;;;;12.38;5.45;;;;;;;18.76;79.55;101827.34;5074687;28;20049;-65
2021/07/18 06:05:09;;;;;;;13.27;6.32;;;;;;;18.48;79.78;101831.81;5074784;28;20059;-64
2021/07/18 06:07:37;;;;;;;11.52;5.88;;;;;;;18.64;79.35;101834.81;5074281;28;20399;-65
2021/07/18 06:10:06;;;;;;;13.98;5.30;;;;;;;18.83;78.41;101832.34;5074742;28;20412;-64
2021/07/18 06:12:34;;;;;;;10.10;5.00;;;;;;;19.07;77.24;101832.50;5056099;28;20055;-64
2021/07/18 06:15:02;;;;;;;12.75;5.50;;;;;;;18.99;77.45;101828.59;5074376;28;20072;-65
2021/07/18 06:17:30;;;;;;;9.50;5.07;;;;;;;19.31;76.48;101829.78;5074278;28;20079;-65
2021/07/18 06:19:57;;;;;;;14.93;5.00;;;;;;;19.19;76.34;101829.72;5074495;28;20048;-64
2021/07/18 06:22:24;;;;;;;9.85;5.10;;;;;;;19.11;76.24;101830.63;5074604;28;20056;-64
2021/07/18 06:24:51;;;;;;;10.20;5.00;;;;;;;19.05;76.73;101837.59;5056938;28;20048;-65
2021/07/18 06:27:19;;;;;;;13.00;5.45;;;;;;;19.01;77.13;101833.84;5074896;28;20044;-65
2021/07/18 06:29:46;;;;;;;13.27;5.57;;;;;;;18.97;76.99;101830.09;5057410;28;20055;-63
2021/07/18 06:32:13;;;;;;;11.18;5.13;;;;;;;19.11;76.99;101836.19;5074427;28;20495;-64
2021/07/18 06:34:40;;;;;;;9.35;5.20;;;;;;;19.44;75.84;101834.25;5074344;28;20048;-64
2021/07/18 06:37:08;;;;;;;13.95;5.25;;;;;;;19.37;75.34;101836.78;5074203;28;20063;-64
2021/07/18 06:39:35;;;;;;;10.70;5.05;;;;;;;19.05;76.60;101837.59;5074145;28;20450;-64
2021/07/18 06:42:03;;;;;;;11.82;5.55;;;;;;;19.26;76.70;101838.38;5074071;28;20052;-63
2021/07/18 06:44:31;;;;;;;13.50;5.50;;;;;;;19.32;75.73;101848.19;5074125;28;20055;-64
2021/07/18 06:46:58;;;;;;;13.75;5.55;;;;;;;19.37;75.80;101849.97;5056141;28;20059;-65
2021/07/18 06:49:26;;;;;;;12.77;5.47;;;;;;;19.39;75.54;101850.41;5074113;28;20044;-63
2021/07/18 06:51:53;;;;;;;9.48;4.90;;;;;;;19.23;76.45;101846.63;5074209;28;20060;-64
2021/07/18 06:54:20;;;;;;;12.73;5.22;;;;;;;19.63;74.79;101847.69;5074093;28;20036;-64
2021/07/18 06:56:48;;;;;;;9.60;5.25;;;;;;;19.58;74.72;101839.53;5085111;28;20423;-63
2021/07/18 06:59:16;;;;;;;9.00;4.97;;;;;;;19.78;73.81;101847.00;5093763;28;20527;-64
2021/07/18 07:01:43;;;;;;;11.98;4.60;;;;;;;19.85;73.53;101848.06;5093912;28;20056;-64
2021/07/18 07:04:10;;;;;;;13.90;4.93;;;;;;;19.97;73.57;101842.47;5093969;28;20063;-64
2021/07/18 07:06:38;;;;;;;9.25;4.60;;;;;;;20.19;72.64;101837.59;5093825;28;20039;-64
2021/07/18 07:09:05;;;;;;;13.75;4.95;;;;;;;20.00;73.01;101846.53;5094149;28;20058;-63
2021/07/18 07:11:32;;;;;;;11.52;5.32;;;;;;;19.66;74.15;101839.41;5093954;28;20044;-64
2021/07/18 07:13:59;;;;;;;14.25;4.82;;;;;;;19.88;73.84;101838.13;5076082;28;20067;-64
2021/07/18 07:16:27;;;;;;;11.68;4.40;;;;;;;20.03;73.21;101843.84;5093517;28;20056;-64
2021/07/18 07:18:54;;;;;;;7.28;4.25;;;;;;;20.19;73.02;101838.41;5090457;28;20594;-65
2021/07/18 07:21:21;;;;;;;12.20;4.63;;;;;;;20.30;71.75;101842.34;5051053;28;20041;-65
2021/07/18 07:23:49;;;;;;;13.07;5.50;;;;;;;20.25;72.28;101842.59;5053820;28;20045;-64
2021/07/18 07:26:16;;;;;;;9.00;4.22;;;;;;;20.34;72.02;101840.50;5065553;28;20565;-67
2021/07/18 07:28:43;;;;;;;11.82;4.55;;;;;;;20.38;71.74;101833.00;5055864;28;20060;-64
2021/07/18 07:31:11;;;;;;;11.57;4.43;;;;;;;20.42;71.51;101838.72;5061159;28;20080;-63
2021/07/18 07:33:38;;;;;;;8.07;4.13;;;;;;;20.66;70.66;101833.88;5054123;28;20045;-63
2021/07/18 07:36:06;;;;;;;9.18;4.18;;;;;;;20.90;69.31;101827.38;5056392;28;20052;-64
2021/07/18 07:38:33;;;;;;;7.72;3.78;;;;;;;20.86;69.24;101837.66;5032586;28;20052;-64
2021/07/18 07:41:01;;;;;;;11.18;3.92;;;;;;;21.16;68.17;101834.19;5057047;28;20060;-64
2021/07/18 07:43:28;;;;;;;7.38;4.07;;;;;;;21.66;66.06;101833.53;5058298;28;20040;-64
2021/07/18 07:45:56;;;;;;;9.35;3.95;;;;;;;21.84;65.21;101825.59;5070766;28;20056;-64
2021/07/18 07:48:23;;;;;;;8.20;3.22;;;;;;;22.27;63.97;101837.50;5072515;28;20051;-63
2021/07/18 07:50:50;;;;;;;10.35;3.58;;;;;;;22.56;62.93;101827.75;5073414;28;20487;-63
2021/07/18 07:53:18;;;;;;;8.75;3.53;;;;;;;22.33;63.37;101836.03;5068885;28;20049;-64
2021/07/18 07:55:45;;;;;;;8.45;3.47;;;;;;;22.69;62.10;101834.88;5057808;28;20053;-64
2021/07/18 07:58:13;;;;;;;7.90;3.10;;;;;;;22.08;63.83;101840.25;5073431;28;20052;-64
2021/07/18 08:00:42;;;;;;;9.25;3.65;;;;;;;22.31;62.36;101835.59;5047207;28;20442;-64
2021/07/18 08:03:09;;;;;;;6.85;3.22;;;;;;;22.67;61.69;101834.41;5052597;28;20438;-64
2021/07/18 08:05:37;;;;;;;12.40;3.58;;;;;;;22.87;60.72;101830.44;5036082;28;20045;-65
2021/07/18 08:08:05;;;;;;;8.15;3.30;;;;;;;22.71;61.07;101834.50;5039095;28;20053;-63
2021/07/18 08:10:33;;;;;;;6.93;3.00;;;;;;;22.94;59.92;101821.34;5064262;28;20052;-63
2021/07/18 08:13:00;;;;;;;10.48;3.30;;;;;;;23.15;60.25;101827.41;5063487;28;20044;-63
2021/07/18 08:15:27;;;;;;;9.65;2.95;;;;;;;23.53;57.94;101820.91;5069573;28;20045;-63
2021/07/18 08:17:55;;;;;;;9.80;3.00;;;;;;;23.16;59.27;101823.38;5034280;28;20080;-64
2021/07/18 08:20:24;;;;;;;6.70;2.72;;;;;;;23.00;59.40;101823.47;5064828;28;20044;-65
2021/07/18 08:22:53;;;;;;;11.30;2.63;;;;;;;22.79;59.78;101819.41;5058092;28;20059;-64
2021/07/18 08:25:22;;;;;;;7.43;2.83;;;;;;;22.98;59.37;101816.63;5065435;28;20036;-65
2021/07/18 08:27:49;;;;;;;5.68;2.50;;;;;;;22.90;59.15;101817.63;5052753;28;20387;-65
2021/07/18 08:30:17;;;;;;;8.63;2.70;;;;;;;22.84;59.38;101807.91;5043370;28;20057;-64
2021/07/18 08:32:50;;;;;;;6.82;3.08;;;;;;;22.84;59.66;101811.50;5058368;28;20049;-65
2021/07/18 08:35:18;;;;;;;5.38;2.60;;;;;;;22.82;59.45;101801.84;5074411;28;20056;-64
2021/07/18 08:37:46;;;;;;;6.10;2.35;;;;;;;23.00;59.06;101805.78;5066625;28;20044;-64
2021/07/18 08:40:14;;;;;;;7.57;2.63;;;;;;;22.64;60.34;101811.88;5064063;28;20041;-63
2021/07/18 08:42:41;;;;;;;6.28;2.40;;;;;;;22.72;59.58;101803.22;5071150;28;20051;-64
2021/07/18 08:45:10;;;;;;;6.18;2.10;;;;;;;22.67;58.97;101805.50;5054002;28;20055;-65
2021/07/18 08:47:38;;;;;;;7.10;2.42;;;;;;;22.77;59.18;101800.13;5055484;28;20045;-65
2021/07/18 08:50:08;;;;;;;6.75;2.38;;;;;;;22.70;58.70;101796.38;5060491;28;20467;-63
2021/07/18 08:52:36;;;;;;;6.40;2.10;;;;;;;22.65;57.68;101797.44;5056244;28;20064;-66
2021/07/18 08:55:07;;;;;;;8.15;2.28;;;;;;;22.72;57.78;101792.00;5056620;28;20408;-64
2021/07/18 08:57:35;;;;;;;8.50;2.42;;;;;;;22.82;57.73;101799.81;5078171;28;20049;-65
2021/07/18 09:00:04;;;;;;;6.22;2.30;;;;;;;22.70;57.86;101796.38;5062724;28;20060;-65
2021/07/18 09:02:31;;;;;;;11.10;3.03;;;;;;;22.87;57.30;101785.50;5061078;28;20068;-65
2021/07/18 09:04:59;;;;;;;7.25;2.17;;;;;;;22.77;57.34;101802.94;5049053;28;20037;-64
2021/07/18 09:07:26;;;;;;;3.78;1.83;;;;;;;22.89;57.09;101787.94;5075775;28;20048;-64
2021/07/18 09:10:05;;;;;;;5.20;1.90;;;;;;;23.02;56.53;101793.00;5058710;28;20496;-64
2021/07/18 09:12:32;;;;;;;9.50;2.20;;;;;;;23.21;56.32;101792.16;5068614;28;20060;-64
2021/07/18 09:15:00;;;;;;;12.13;2.55;;;;;;;23.39;56.22;101784.91;5067145;28;20045;-65
2021/07/18 09:17:33;;;;;;;4.38;1.95;;;;;;;23.26;56.12;101778.63;5056320;28;20692;-64
2021/07/18 09:20:15;;;;;;;6.78;2.80;;;;;;;23.58;57.55;101790.47;5075587;28;20075;-38
2021/07/18 09:22:43;;;;;;;5.88;2.10;;;;;;;23.73;58.59;101783.88;5058979;28;20076;-39
2021/07/18 09:25:11;;;;;;;7.03;2.47;;;;;;;23.84;58.29;101786.88;5038935;28;20041;-42
2021/07/18 09:27:38;;;;;;;8.27;2.60;;;;;;;24.02;60.50;101788.00;5055533;28;20056;-42
2021/07/18 09:30:09;;;;;;;7.53;3.13;;;;;;;24.25;60.67;101780.31;5037763;28;20049;-42
2021/07/18 09:32:39;;;;;;;8.18;2.72;;;;;;;24.43;60.68;101770.91;5055268;28;20049;-43
2021/07/18 09:35:08;;;;;;;;;;;;;;;24.30;59.94;101772.31;5069829;28;20044;-41
2021/07/18 09:37:40;;;;;;;6.43;2.90;;;;;;;24.45;57.27;101764.91;5052556;28;19921;-40
2021/07/18 09:40:13;;;;;;;12.57;2.92;;;;;;;24.50;56.60;101773.81;5061386;28;20053;-41
2021/07/18 09:42:44;;;;;;;16.05;5.18;;;;;;;24.50;56.25;101768.19;5055428;28;20049;-42
2021/07/18 09:45:11;;;;;;;13.13;3.72;;;;;;;24.49;54.46;101768.59;5042195;28;20056;-42
2021/07/18 09:47:51;;;;;;;8.00;2.65;;;;;;;24.44;53.43;101766.88;5055899;28;20444;-42
2021/07/18 09:50:19;;;;;;;4.90;1.83;;;;;;;24.40;49.63;101766.06;5059615;28;20052;-42
2021/07/18 09:52:49;;;;;;;4.55;1.60;;;;;;;24.07;48.08;101768.78;5019175;28;20057;-66
2021/07/18 09:55:20;;;;;;;;;;;;;;;24.14;48.41;101771.72;5048131;28;20052;-66
2021/07/18 09:57:52;;;;;;;5.82;2.03;;;;;;;24.22;48.71;101767.81;5061664;28;19921;-68
2021/07/18 10:00:22;;;;;;;4.80;1.92;;;;;;;24.34;48.82;101759.13;5055328;28;20068;-67
2021/07/18 10:02:51;;;;;;;6.80;1.90;;;;;;;24.40;48.24;101754.78;5040049;28;20062;-66
2021/07/18 10:05:27;;;;;;;4.67;1.60;;;;;;;24.45;47.83;101760.09;5044552;28;20049;-66
2021/07/18 10:08:09;;;;;;;5.43;2.05;;;;;;;24.45;48.18;101751.63;5042247;28;20296;-65
2021/07/18 10:10:38;;;;;;;4.80;1.67;;;;;;;24.59;48.22;101759.44;5042576;28;20132;-66
2021/07/18 10:13:07;;;;;;;5.13;1.75;;;;;;;24.57;48.44;101759.00;5042483;28;20051;-66
2021/07/18 10:15:34;;;;;;;5.90;1.90;;;;;;;24.66;47.87;101753.91;5048869;28;20061;-66
2021/07/18 10:18:02;;;;;;;4.40;2.08;;;;;;;24.48;48.24;101755.66;5034273;28;20049;-66
2021/07/18 10:20:29;;;;;;;5.43;2.58;;;;;;;24.45;48.19;101753.63;5048993;28;20053;-67
2021/07/18 10:22:57;;;;;;;3.67;1.73;;;;;;;24.62;47.43;101763.50;5033227;28;20053;-66
2021/07/18 10:25:26;;;;;;;5.05;1.70;;;;;;;24.69;46.89;101750.34;5034937;28;20049;-67
2021/07/18 10:27:53;;;;;;;5.78;2.10;;;;;;;24.75;46.84;101759.28;5043416;28;20512;-67
2021/07/18 10:30:21;;;;;;;5.50;2.20;;;;;;;24.76;46.50;101747.59;5054195;28;20064;-68
2021/07/18 10:32:51;;;;;;;3.90;1.90;;;;;;;24.81;45.80;101757.75;5041288;28;20052;-66
2021/07/18 10:35:19;;;;;;;4.25;2.10;;;;;;;24.61;46.32;101748.59;5048716;28;20067;-65
2021/07/18 10:37:46;;;;;;;3.45;1.63;;;;;;;24.62;46.17;101743.78;5043906;28;20052;-67
2021/07/18 10:40:18;;;;;;;8.85;2.08;;;;;;;24.75;46.00;101751.63;5050371;28;20404;-66
2021/07/18 10:42:45;;;;;;;5.65;2.20;;;;;;;24.79;44.97;101735.59;5041959;28;20056;-65
2021/07/18 10:45:26;;;;;;;3.83;1.92;;;;;;;24.95;44.77;101746.63;5040101;28;20041;-66
2021/07/18 10:48:04;;;;;;;5.15;1.92;;;;;;;25.10;44.70;101740.75;5036551;28;20048;-67
2021/07/18 10:50:44;;;;;;;6.78;2.25;;;;;;;25.09;44.75;101732.69;5032279;28;20049;-66
2021/07/18 10:53:15;;;;;;;5.05;2.00;;;;;;;25.23;44.01;101729.97;5060900;28;20051;-64
2021/07/18 10:55:43;;;;;;;4.15;1.95;;;;;;;25.24;43.59;101745.72;5068614;28;20064;-64
2021/07/18 10:58:10;;;;;;;4.82;2.03;;;;;;;25.15;44.53;101739.56;5053877;28;20594;-66
2021/07/18 11:00:48;;;;;;;5.40;2.40;;;;;;;25.06;44.36;101730.63;5037819;28;20052;-64
2021/07/18 11:03:15;;;;;;;3.60;1.98;;;;;;;25.15;44.55;101731.13;5068926;28;20053;-65
2021/07/18 11:05:48;;;;;;;3.80;2.00;;;;;;;25.06;43.86;101733.44;5055515;28;20417;-66
2021/07/18 11:08:15;;;;;;;6.25;2.17;;;;;;;25.31;43.31;101714.75;5041118;28;20064;-64
2021/07/18 11:10:54;;;;;;;4.53;2.45;;;;;;;25.39;43.38;101710.81;5039713;28;20049;-64
2021/07/18 11:13:22;;;;;;;3.97;2.50;;;;;;;25.37;43.73;101708.41;5073936;28;20446;-64
2021/07/18 11:15:50;;;;;;;7.63;3.05;;;;;;;25.52;43.50;101700.88;5064147;28;20039;-64
2021/07/18 11:18:33;;;;;;;9.77;2.83;;;;;;;25.63;43.28;101710.19;5036223;28;20075;-65
2021/07/18 11:21:31;;;;;;;7.15;2.42;;;;;;;25.71;43.02;101705.44;5056713;28;20048;-65
2021/07/18 11:23:58;;;;;;;7.55;2.55;;;;;;;25.63;42.16;101715.84;5061967;28;20057;-66